Time;durP1;ratioP1;P1;durP2;ratioP2;P2;SDS_P1;SDS_P2;PMS_P1;PMS_P2;Temp;Humidity;BMP_temperature;BMP_pressure;BME280_temperature;BME280_humidity;BME280_pressure;Samples;Min_cycle;Max_cycle;Signal;HPM_P1;HPM_P2
2023/08/04 00:01:12;;;;;;;0.00;0.00;;;16.70;99.90;;;;;;5043377;28;20296;-57
2023/08/04 00:03:38;;;;;;;9.52;3.45;;;16.60;99.90;;;;;;5039077;28;20107;-56
2023/08/04 00:06:08;;;;;;;12.48;3.65;;;16.60;99.90;;;;;;5042214;28;20036;-57
2023/08/04 00:08:34;;;;;;;9.68;3.95;;;16.80;99.90;;;;;;5041227;28;20085;-56
2023/08/04 00:10:59;;;;;;;2.25;0.98;;;16.60;99.90;;;;;;5037051;28;20128;-55
2023/08/04 00:13:25;;;;;;;0.00;0.00;;;16.70;99.90;;;;;;5035429;28;20033;-56
2023/08/04 00:15:51;;;;;;;0.08;0.00;;;16.70;99.90;;;;;;5038656;28;20036;-56
2023/08/04 00:18:16;;;;;;;2.65;0.75;;;16.70;99.90;;;;;;5039989;28;20086;-59
2023/08/04 00:20:42;;;;;;;11.40;3.92;;;16.50;99.90;;;;;;5034965;28;20037;-57
2023/08/04 00:23:08;;;;;;;3.65;1.27;;;16.60;99.90;;;;;;5031715;28;20044;-57
2023/08/04 00:25:33;;;;;;;0.00;0.00;;;16.50;99.90;;;;;;5027966;28;20046;-56
2023/08/04 00:27:59;;;;;;;0.10;0.00;;;16.40;99.90;;;;;;5036644;28;20029;-58
2023/08/04 00:30:25;;;;;;;0.00;0.00;;;16.30;99.90;;;;;;5034457;28;20036;-56
2023/08/04 00:32:51;;;;;;;0.00;0.00;;;16.30;99.90;;;;;;5040401;28;20056;-57
2023/08/04 00:35:16;;;;;;;0.00;0.00;;;16.40;99.90;;;;;;5031107;28;20087;-57
2023/08/04 00:37:42;;;;;;;10.85;4.00;;;16.40;99.90;;;;;;5033091;28;20072;-57
2023/08/04 00:40:08;;;;;;;15.52;5.18;;;16.50;99.90;;;;;;5037549;28;20129;-57
2023/08/04 00:42:34;;;;;;;12.90;5.53;;;16.50;99.90;;;;;;5035947;28;20064;-58
2023/08/04 00:44:59;;;;;;;15.20;3.95;;;16.40;99.90;;;;;;5042325;28;20481;-58
2023/08/04 00:47:25;;;;;;;13.82;4.32;;;16.40;99.90;;;;;;5032588;28;20495;-57
2023/08/04 00:49:54;;;;;;;17.92;4.97;;;16.70;99.90;;;;;;5032918;28;20057;-56
2023/08/04 00:52:20;;;;;;;15.65;4.40;;;16.70;99.90;;;;;;5036971;28;20044;-59
2023/08/04 00:54:46;;;;;;;13.23;4.45;;;16.50;99.90;;;;;;5033806;28;20407;-57
2023/08/04 00:57:12;;;;;;;11.48;3.92;;;16.70;99.90;;;;;;5035299;28;20029;-57
2023/08/04 00:59:37;;;;;;;12.13;4.47;;;16.60;99.90;;;;;;5038489;28;20202;-57
2023/08/04 01:02:03;;;;;;;18.88;4.85;;;16.60;99.90;;;;;;5037262;28;20048;-58
2023/08/04 01:04:29;;;;;;;18.98;5.32;;;16.70;99.90;;;;;;5034454;28;20061;-57
2023/08/04 01:07:14;;;;;;;15.75;4.43;;;16.60;99.90;;;;;;5031428;28;20033;-56
2023/08/04 01:09:44;;;;;;;13.05;4.35;;;16.70;99.90;;;;;;5030976;28;20025;-59
2023/08/04 01:12:42;;;;;;;17.25;4.40;;;16.60;99.90;;;;;;5036736;28;20049;-57
2023/08/04 01:15:09;;;;;;;11.15;4.35;;;16.60;99.90;;;;;;5036095;28;20037;-56
2023/08/04 01:17:35;;;;;;;10.27;4.30;;;16.50;99.90;;;;;;5035675;28;20033;-57
2023/08/04 01:20:03;;;;;;;16.50;3.97;;;16.60;99.90;;;;;;5034444;28;20167;-58
2023/08/04 01:22:28;;;;;;;11.93;4.32;;;16.60;99.90;;;;;;5042036;28;20037;-58
2023/08/04 01:24:55;;;;;;;13.60;4.32;;;16.60;99.90;;;;;;5036280;28;20546;-59
2023/08/04 01:27:29;;;;;;;11.30;4.57;;;16.60;99.90;;;;;;5033057;28;20477;-57
2023/08/04 01:29:57;;;;;;;13.73;5.07;;;16.50;99.90;;;;;;5038437;28;20052;-61
2023/08/04 01:32:23;;;;;;;13.80;5.60;;;16.60;99.90;;;;;;5034380;28;20033;-57
2023/08/04 01:34:49;;;;;;;8.65;4.70;;;16.50;99.90;;;;;;5039877;28;20096;-62
2023/08/04 01:37:15;;;;;;;13.90;5.18;;;16.50;99.90;;;;;;5033501;28;20453;-57
2023/08/04 01:39:42;;;;;;;9.90;4.70;;;16.40;99.90;;;;;;5039023;28;20444;-56
2023/08/04 01:42:07;;;;;;;11.02;4.75;;;16.40;99.90;;;;;;5037342;28;20052;-57
2023/08/04 01:44:33;;;;;;;11.57;5.18;;;16.60;99.90;;;;;;5043319;28;20036;-56
2023/08/04 01:46:59;;;;;;;15.90;5.28;;;16.60;99.90;;;;;;5039379;28;20040;-55
2023/08/04 01:49:25;;;;;;;12.73;5.20;;;16.50;99.90;;;;;;5038292;28;20037;-57
2023/08/04 01:51:51;;;;;;;18.30;5.72;;;16.40;99.90;;;;;;5040364;28;20115;-56
2023/08/04 01:54:16;;;;;;;15.95;5.65;;;16.50;99.90;;;;;;5041648;28;20037;-56
2023/08/04 01:56:42;;;;;;;11.60;5.85;;;16.50;99.90;;;;;;5043315;28;20037;-55
2023/08/04 01:59:10;;;;;;;12.35;6.13;;;;;;;;;;5042423;28;20120;-55
2023/08/04 02:01:35;;;;;;;11.20;5.70;;;16.50;99.90;;;;;;5042873;28;20063;-55
2023/08/04 02:04:01;;;;;;;17.13;5.75;;;16.50;99.90;;;;;;5042882;28;20186;-56
2023/08/04 02:06:26;;;;;;;12.02;5.20;;;16.40;99.90;;;;;;5038355;28;20099;-55
2023/08/04 02:08:52;;;;;;;15.30;5.80;;;16.20;99.90;;;;;;5040562;28;20395;-55
2023/08/04 02:11:17;;;;;;;15.02;5.70;;;16.20;99.90;;;;;;5040728;28;20022;-56
2023/08/04 02:13:43;;;;;;;12.77;5.47;;;16.20;99.90;;;;;;5047260;28;20033;-57
2023/08/04 02:16:09;;;;;;;15.82;5.85;;;16.30;99.90;;;;;;5035118;28;20083;-57
2023/08/04 02:18:34;;;;;;;12.27;5.40;;;16.00;99.90;;;;;;5031517;28;20104;-57
2023/08/04 02:21:00;;;;;;;9.88;5.38;;;16.10;99.90;;;;;;5039434;28;20040;-56
2023/08/04 02:23:28;;;;;;;13.70;6.28;;;16.20;99.90;;;;;;5038245;28;20173;-57
2023/08/04 02:25:53;;;;;;;12.18;6.00;;;16.10;99.90;;;;;;5040236;28;20033;-57
2023/08/04 02:28:19;;;;;;;17.13;6.03;;;16.10;99.90;;;;;;5041504;28;20026;-57
2023/08/04 02:30:45;;;;;;;14.30;5.70;;;16.10;99.90;;;;;;5041970;28;20043;-60
2023/08/04 02:33:10;;;;;;;13.25;5.57;;;16.20;99.90;;;;;;5041501;28;20041;-56
2023/08/04 02:35:36;;;;;;;12.93;5.75;;;16.10;99.90;;;;;;5044332;28;20106;-55
2023/08/04 02:38:01;;;;;;;16.20;6.35;;;16.30;99.90;;;;;;5037410;28;20037;-56
2023/08/04 02:40:27;;;;;;;16.65;6.60;;;16.30;99.90;;;;;;5046634;28;20182;-57
2023/08/04 02:42:52;;;;;;;18.63;5.60;;;16.40;99.90;;;;;;5041598;28;20037;-57
2023/08/04 02:45:18;;;;;;;17.02;6.30;;;16.50;99.90;;;;;;5036358;28;20034;-56
2023/08/04 02:47:44;;;;;;;20.15;7.55;;;16.40;99.90;;;;;;5043927;28;20100;-57
2023/08/04 02:50:09;;;;;;;14.80;6.57;;;16.30;99.90;;;;;;5038980;28;20484;-56
2023/08/04 02:52:35;;;;;;;12.05;5.38;;;16.10;99.90;;;;;;5039894;28;20076;-56
2023/08/04 02:55:01;;;;;;;18.90;7.20;;;16.20;99.90;;;;;;5036958;28;20033;-57
2023/08/04 02:57:30;;;;;;;17.92;7.43;;;16.20;99.90;;;;;;5042805;28;20037;-57
2023/08/04 02:59:57;;;;;;;15.95;6.30;;;16.00;99.90;;;;;;5041354;28;20037;-57
2023/08/04 03:02:25;;;;;;;14.32;6.15;;;15.90;99.90;;;;;;5040857;28;20061;-58
2023/08/04 03:04:50;;;;;;;13.77;6.22;;;15.90;99.90;;;;;;5036800;28;20087;-57
2023/08/04 03:07:16;;;;;;;15.90;6.55;;;15.90;99.90;;;;;;5037391;28;20673;-55
2023/08/04 03:09:41;;;;;;;17.25;6.22;;;16.00;99.90;;;;;;5034344;28;20129;-57
2023/08/04 03:12:08;;;;;;;15.85;6.22;;;16.10;99.90;;;;;;5033874;28;20057;-56
2023/08/04 03:14:33;;;;;;;15.63;6.97;;;15.90;99.90;;;;;;5036121;28;20485;-55
2023/08/04 03:16:59;;;;;;;22.88;6.88;;;15.90;99.90;;;;;;5037322;28;20717;-58
2023/08/04 03:19:24;;;;;;;15.25;6.78;;;16.10;99.90;;;;;;5035931;28;20039;-57
2023/08/04 03:21:50;;;;;;;12.05;5.90;;;16.00;99.90;;;;;;5040301;28;20448;-57
2023/08/04 03:24:15;;;;;;;18.33;6.90;;;15.80;99.90;;;;;;5032716;28;20148;-57
2023/08/04 03:26:41;;;;;;;18.50;6.55;;;15.90;99.90;;;;;;5045096;28;20404;-57
2023/08/04 03:29:07;;;;;;;21.23;6.53;;;15.90;99.90;;;;;;5040810;28;20055;-56
2023/08/04 03:31:32;;;;;;;16.75;6.32;;;16.00;99.90;;;;;;5031191;28;20402;-56
2023/08/04 03:33:58;;;;;;;17.35;6.55;;;16.00;99.90;;;;;;5030384;28;20068;-57
2023/08/04 03:36:23;;;;;;;21.00;7.18;;;15.90;99.90;;;;;;5033833;28;20031;-57
2023/08/04 03:38:49;;;;;;;18.65;7.05;;;16.10;99.90;;;;;;5039853;28;21185;-56
2023/08/04 03:41:14;;;;;;;21.13;7.38;;;15.90;99.90;;;;;;5034228;28;20041;-57
2023/08/04 03:43:40;;;;;;;17.55;6.88;;;16.00;99.90;;;;;;5037119;28;20377;-56
2023/08/04 03:46:06;;;;;;;18.85;7.07;;;16.00;99.90;;;;;;5041771;28;20637;-57
2023/08/04 03:48:31;;;;;;;24.05;7.13;;;16.10;99.90;;;;;;5035704;28;20033;-57
2023/08/04 03:50:57;;;;;;;17.33;6.78;;;16.00;99.90;;;;;;5033557;28;20065;-56
2023/08/04 03:53:22;;;;;;;18.85;7.10;;;16.00;99.90;;;;;;5038651;28;20384;-57
2023/08/04 03:55:48;;;;;;;17.85;7.03;;;15.90;99.90;;;;;;5041835;28;20036;-57
2023/08/04 03:58:14;;;;;;;16.50;6.63;;;15.90;99.90;;;;;;5038491;28;20133;-57
2023/08/04 04:00:39;;;;;;;13.88;7.22;;;16.00;99.90;;;;;;5038361;28;20068;-58
2023/08/04 04:03:05;;;;;;;14.98;6.65;;;15.90;99.90;;;;;;5039817;28;20483;-57
2023/08/04 04:05:30;;;;;;;14.77;6.82;;;16.00;99.90;;;;;;5033921;28;20437;-57
2023/08/04 04:07:56;;;;;;;19.90;7.38;;;15.90;99.90;;;;;;5036755;28;20036;-58
2023/08/04 04:10:21;;;;;;;16.08;6.50;;;15.70;99.90;;;;;;5033793;28;20041;-57
2023/08/04 04:12:47;;;;;;;15.73;6.53;;;15.90;99.90;;;;;;5041672;28;20298;-57
2023/08/04 04:15:13;;;;;;;13.88;6.45;;;15.70;99.90;;;;;;5031249;28;20027;-57
2023/08/04 04:17:38;;;;;;;13.15;6.72;;;15.60;99.90;;;;;;5039500;28;20121;-55
2023/08/04 04:20:05;;;;;;;10.20;6.20;;;15.60;99.90;;;;;;5037219;28;20044;-57
2023/08/04 04:22:30;;;;;;;10.15;5.97;;;15.60;99.90;;;;;;5030199;28;20049;-57
2023/08/04 04:24:56;;;;;;;15.90;6.43;;;15.50;99.90;;;;;;5033675;28;20409;-57
2023/08/04 04:27:22;;;;;;;15.70;6.90;;;15.50;99.90;;;;;;5039310;28;20037;-57
2023/08/04 04:29:48;;;;;;;13.00;6.57;;;15.70;99.90;;;;;;5031679;28;20409;-57
2023/08/04 04:32:13;;;;;;;13.32;6.72;;;15.60;99.90;;;;;;5038053;28;20037;-58
2023/08/04 04:34:40;;;;;;;12.32;6.30;;;15.70;99.90;;;;;;5040756;28;20497;-57
2023/08/04 04:37:06;;;;;;;14.77;6.65;;;15.70;99.90;;;;;;5040560;28;20393;-56
2023/08/04 04:39:31;;;;;;;14.30;6.93;;;15.80;99.90;;;;;;5042143;28;20040;-56
2023/08/04 04:41:57;;;;;;;16.10;6.65;;;15.70;99.90;;;;;;5037579;28;20068;-57
2023/08/04 04:44:23;;;;;;;15.52;7.22;;;15.90;99.90;;;;;;5033672;28;20030;-57
2023/08/04 04:46:49;;;;;;;15.98;7.22;;;15.70;99.90;;;;;;5038499;28;20174;-57
2023/08/04 04:49:16;;;;;;;15.20;7.85;;;15.90;99.90;;;;;;5040839;28;20041;-56
2023/08/04 04:51:42;;;;;;;16.45;6.82;;;16.00;99.90;;;;;;5043236;28;20139;-56
2023/08/04 04:54:08;;;;;;;16.88;7.93;;;15.90;99.90;;;;;;5039217;28;20095;-57
2023/08/04 04:56:33;;;;;;;17.92;7.40;;;16.10;99.90;;;;;;5034605;28;20041;-56
2023/08/04 04:58:59;;;;;;;21.30;8.05;;;16.00;99.90;;;;;;5035066;28;20048;-56
2023/08/04 05:01:25;;;;;;;23.40;7.72;;;16.00;99.90;;;;;;5038850;28;20036;-57
2023/08/04 05:03:50;;;;;;;17.55;7.50;;;16.20;99.90;;;;;;5037255;28;20040;-56
2023/08/04 05:06:16;;;;;;;21.40;8.32;;;16.10;99.90;;;;;;5033220;28;20037;-57
2023/08/04 05:08:41;;;;;;;20.70;7.68;;;16.20;99.90;;;;;;5042367;28;20086;-57
2023/08/04 05:11:07;;;;;;;16.77;7.82;;;16.30;99.90;;;;;;5035724;28;20049;-57
2023/08/04 05:13:33;;;;;;;16.08;7.82;;;16.30;99.90;;;;;;5029029;28;20037;-58
2023/08/04 05:15:58;;;;;;;18.48;7.90;;;16.40;99.90;;;;;;5035298;28;20313;-58
2023/08/04 05:18:24;;;;;;;22.67;8.68;;;16.00;99.90;;;;;;5041106;28;20048;-58
2023/08/04 05:20:50;;;;;;;16.40;8.18;;;16.00;99.90;;;;;;5035786;28;20108;-58
2023/08/04 05:23:16;;;;;;;17.95;8.40;;;16.20;99.90;;;;;;5047589;28;20108;-58
2023/08/04 05:25:42;;;;;;;21.15;8.00;;;16.10;99.90;;;;;;5046020;28;20841;-57
2023/08/04 05:28:28;;;;;;;16.05;8.68;;;16.40;99.90;;;;;;5036513;28;20041;-57
2023/08/04 05:30:57;;;;;;;23.67;8.85;;;16.20;99.90;;;;;;5042110;28;20033;-57
2023/08/04 05:33:23;;;;;;;21.23;8.80;;;16.30;99.90;;;;;;5046812;28;20041;-57
2023/08/04 05:35:49;;;;;;;18.92;8.73;;;16.20;99.90;;;;;;5034470;28;20041;-57
2023/08/04 05:38:15;;;;;;;22.73;8.98;;;16.40;99.90;;;;;;5037062;28;20047;-57
2023/08/04 05:40:45;;;;;;;19.17;9.00;;;16.40;99.90;;;;;;5033763;28;20508;-56
2023/08/04 05:43:11;;;;;;;27.98;9.10;;;16.40;99.90;;;;;;5038633;28;20385;-57
2023/08/04 05:45:39;;;;;;;22.02;8.13;;;16.40;99.90;;;;;;5033110;28;20432;-55
2023/08/04 05:48:05;;;;;;;22.40;8.75;;;16.60;99.90;;;;;;5025930;28;20362;-57
2023/08/04 05:50:31;;;;;;;18.83;8.80;;;16.70;99.90;;;;;;5029941;28;20029;-56
2023/08/04 05:52:57;;;;;;;18.00;9.07;;;16.70;99.90;;;;;;5039922;28;20047;-57
2023/08/04 05:55:23;;;;;;;23.67;9.73;;;16.60;99.90;;;;;;5042688;28;20056;-56
2023/08/04 05:57:50;;;;;;;22.30;9.57;;;16.60;99.90;;;;;;5038127;28;20401;-57
2023/08/04 06:00:16;;;;;;;29.02;9.25;;;16.60;99.90;;;;;;5044233;28;20078;-57
2023/08/04 06:02:43;;;;;;;17.30;8.48;;;16.50;99.90;;;;;;5035073;28;20041;-57
2023/08/04 06:05:09;;;;;;;20.67;9.40;;;16.50;99.90;;;;;;5034992;28;20026;-57
2023/08/04 06:07:35;;;;;;;18.25;8.60;;;16.50;99.90;;;;;;5040864;28;20063;-56
2023/08/04 06:10:01;;;;;;;22.65;9.07;;;16.50;99.90;;;;;;5040181;28;20040;-58
2023/08/04 06:12:27;;;;;;;19.65;8.85;;;16.60;99.90;;;;;;5040709;28;20393;-57
2023/08/04 06:14:52;;;;;;;19.00;9.13;;;16.60;99.90;;;;;;5036055;28;20434;-56
2023/08/04 06:17:18;;;;;;;20.65;8.98;;;16.60;99.90;;;;;;5043421;28;20033;-57
2023/08/04 06:19:43;;;;;;;27.60;9.50;;;16.70;99.90;;;;;;5044941;28;20495;-56
2023/08/04 06:22:10;;;;;;;18.45;8.80;;;16.70;99.90;;;;;;5037315;28;20041;-57
2023/08/04 06:24:35;;;;;;;18.20;8.90;;;16.80;99.90;;;;;;5030483;28;20037;-56
2023/08/04 06:27:03;;;;;;;19.67;9.15;;;16.80;99.90;;;;;;5041238;28;20048;-57
2023/08/04 06:29:29;;;;;;;28.88;9.73;;;16.70;99.90;;;;;;5032687;28;20094;-58
2023/08/04 06:31:55;;;;;;;26.05;10.05;;;16.90;99.90;;;;;;5045848;28;20037;-58
2023/08/04 06:34:21;;;;;;;22.35;9.30;;;17.00;99.90;;;;;;5035209;28;20060;-57
2023/08/04 06:36:47;;;;;;;20.35;9.25;;;17.00;99.90;;;;;;5040472;28;20033;-55
2023/08/04 06:39:13;;;;;;;20.90;9.25;;;17.10;99.90;;;;;;5041115;28;20136;-56
2023/08/04 06:41:39;;;;;;;27.63;9.43;;;17.00;99.90;;;;;;5041998;28;20132;-57
2023/08/04 06:44:05;;;;;;;19.10;8.77;;;17.30;99.90;;;;;;5037955;28;20040;-58
2023/08/04 06:46:30;;;;;;;20.23;8.80;;;17.20;99.90;;;;;;5037395;28;20166;-57
2023/08/04 06:48:56;;;;;;;17.13;8.65;;;17.20;99.90;;;;;;5035848;28;20529;-58
2023/08/04 06:51:22;;;;;;;19.77;8.93;;;17.40;99.90;;;;;;5040584;28;20064;-57
2023/08/04 06:53:48;;;;;;;21.83;9.25;;;;;;;;;;5032872;28;20037;-57
2023/08/04 06:56:13;;;;;;;20.48;9.00;;;17.40;99.90;;;;;;5038146;28;20030;-57
2023/08/04 06:58:40;;;;;;;21.85;9.13;;;;;;;;;;5045126;28;20086;-58
2023/08/04 07:01:05;;;;;;;18.08;8.90;;;17.10;99.90;;;;;;5037894;28;20098;-57
2023/08/04 07:03:31;;;;;;;17.55;8.90;;;17.30;99.90;;;;;;5038412;28;20045;-57
2023/08/04 07:05:56;;;;;;;19.92;9.00;;;17.50;99.90;;;;;;5040315;28;20166;-56
2023/08/04 07:08:22;;;;;;;22.13;9.40;;;17.50;99.90;;;;;;5042576;28;20063;-57
2023/08/04 07:10:48;;;;;;;19.02;9.35;;;17.60;99.90;;;;;;5040534;28;20376;-57
2023/08/04 07:13:13;;;;;;;17.55;8.88;;;17.60;99.90;;;;;;5042183;28;20032;-58
2023/08/04 07:15:39;;;;;;;21.70;9.95;;;17.70;99.90;;;;;;5039830;28;20064;-57
2023/08/04 07:18:05;;;;;;;21.95;9.50;;;17.90;99.90;;;;;;5043980;28;20033;-57
2023/08/04 07:20:31;;;;;;;26.08;10.43;;;18.00;99.90;;;;;;5037101;28;20117;-58
2023/08/04 07:22:57;;;;;;;16.38;9.55;;;18.00;99.90;;;;;;5036954;28;20493;-57
2023/08/04 07:25:23;;;;;;;22.60;10.45;;;18.00;99.90;;;;;;5041981;28;20072;-57
2023/08/04 07:27:48;;;;;;;23.92;11.13;;;17.80;99.90;;;;;;5039550;28;20061;-57
2023/08/04 07:30:15;;;;;;;28.70;9.98;;;17.90;99.90;;;;;;5036791;28;20049;-58
2023/08/04 07:32:41;;;;;;;22.58;9.43;;;17.90;99.90;;;;;;5041434;28;20175;-58
2023/08/04 07:35:07;;;;;;;23.17;10.18;;;18.00;99.90;;;;;;5040826;28;21324;-58
2023/08/04 07:37:34;;;;;;;16.85;8.93;;;18.00;99.90;;;;;;5041957;28;20040;-59
2023/08/04 07:39:59;;;;;;;22.88;9.10;;;17.90;99.90;;;;;;5038029;28;20041;-57
2023/08/04 07:42:25;;;;;;;20.13;8.88;;;17.90;99.90;;;;;;5027691;28;20115;-58
2023/08/04 07:44:51;;;;;;;18.65;9.27;;;18.00;99.90;;;;;;5032014;28;20033;-58
2023/08/04 07:47:16;;;;;;;19.48;9.05;;;18.20;99.90;;;;;;5036134;28;20494;-57
2023/08/04 07:49:42;;;;;;;17.90;8.55;;;18.20;99.90;;;;;;5034041;28;20095;-58
2023/08/04 07:52:08;;;;;;;21.00;8.88;;;18.20;99.90;;;;;;5033155;28;20123;-55
2023/08/04 07:54:34;;;;;;;22.58;9.50;;;18.20;99.90;;;;;;5027168;28;20065;-58
2023/08/04 07:57:01;;;;;;;16.92;8.18;;;18.30;99.90;;;;;;5038810;28;20044;-58
2023/08/04 07:59:27;;;;;;;15.73;7.32;;;18.40;99.90;;;;;;5039204;28;20036;-58
2023/08/04 08:01:52;;;;;;;17.63;8.07;;;18.30;99.90;;;;;;5037920;28;20049;-59
2023/08/04 08:04:18;;;;;;;20.88;9.00;;;18.30;99.90;;;;;;5035137;28;20065;-57
2023/08/04 08:06:46;;;;;;;19.95;8.68;;;;;;;;;;5034383;28;20025;-58
2023/08/04 08:09:14;;;;;;;14.82;7.65;;;;;;;;;;5042013;28;20456;-57
2023/08/04 08:11:40;;;;;;;15.15;7.20;;;;;;;;;;5039945;28;20040;-57
2023/08/04 08:14:07;;;;;;;14.23;6.88;;;;;;;;;;5034132;28;20392;-58
2023/08/04 08:16:33;;;;;;;18.92;6.75;;;18.40;99.90;;;;;;5038423;28;20653;-58
2023/08/04 08:18:59;;;;;;;20.73;6.75;;;18.50;99.90;;;;;;5032400;28;20032;-58
2023/08/04 08:21:25;;;;;;;11.45;6.22;;;18.50;99.90;;;;;;5029028;28;20095;-58
2023/08/04 08:23:51;;;;;;;16.80;6.47;;;;;;;;;;5027897;28;20026;-57
2023/08/04 08:26:17;;;;;;;15.20;6.47;;;18.50;99.90;;;;;;5033277;28;20384;-58
2023/08/04 08:28:42;;;;;;;21.13;6.80;;;18.60;99.90;;;;;;5035995;28;20029;-55
2023/08/04 08:31:08;;;;;;;16.50;7.53;;;;;;;;;;5026963;28;20057;-58
2023/08/04 08:33:34;;;;;;;18.85;7.82;;;;;;;;;;5035419;28;20041;-58
2023/08/04 08:36:01;;;;;;;19.45;7.43;;;;;;;;;;5035081;28;20436;-58
2023/08/04 08:38:28;;;;;;;17.25;8.55;;;;;;;;;;5029459;28;20037;-58
2023/08/04 08:40:54;;;;;;;13.27;7.63;;;19.40;99.90;;;;;;5029596;28;20045;-58
2023/08/04 08:43:19;;;;;;;14.68;7.90;;;19.10;99.90;;;;;;5033746;28;20040;-57
2023/08/04 08:45:46;;;;;;;13.95;7.05;;;19.10;99.90;;;;;;5039300;28;20368;-59
2023/08/04 08:48:12;;;;;;;18.30;7.40;;;19.00;99.90;;;;;;5039223;28;20481;-57
2023/08/04 08:50:39;;;;;;;16.38;7.35;;;18.90;99.90;;;;;;5036552;28;20389;-58
2023/08/04 08:53:16;;;;;;;15.07;6.65;;;18.60;99.90;;;;;;5039418;28;20118;-58
2023/08/04 08:55:42;;;;;;;11.63;6.70;;;18.60;99.90;;;;;;5033393;28;20029;-58
2023/08/04 08:58:09;;;;;;;15.88;6.47;;;18.90;99.90;;;;;;5032184;28;20514;-60
2023/08/04 09:00:35;;;;;;;16.70;6.40;;;18.70;99.90;;;;;;5034975;28;20554;-57
2023/08/04 09:03:05;;;;;;;16.58;6.38;;;19.00;99.90;;;;;;5034666;28;20041;-59
2023/08/04 09:05:33;;;;;;;12.50;6.60;;;;;;;;;;5040203;28;20131;-57
2023/08/04 09:07:58;;;;;;;11.35;6.40;;;19.00;99.90;;;;;;5041641;28;20049;-57
2023/08/04 09:10:24;;;;;;;14.30;5.90;;;19.00;99.90;;;;;;5036914;28;20037;-57
2023/08/04 09:12:52;;;;;;;13.50;6.30;;;;;;;;;;5040405;28;20044;-59
2023/08/04 09:15:19;;;;;;;14.00;5.72;;;;;;;;;;5030703;28;20032;-57
2023/08/04 09:17:47;;;;;;;15.95;5.35;;;;;;;;;;5041901;28;20571;-58
2023/08/04 09:20:27;;;;;;;12.57;5.75;;;;;;;;;;5040858;28;20061;-58
2023/08/04 09:22:53;;;;;;;13.43;5.53;;;19.60;99.90;;;;;;5038632;28;20473;-58
2023/08/04 09:25:19;;;;;;;13.25;5.20;;;19.70;99.90;;;;;;5038417;28;20601;-58
2023/08/04 09:27:49;;;;;;;11.30;4.40;;;19.50;99.90;;;;;;5033612;28;20041;-58
2023/08/04 09:30:16;;;;;;;9.27;4.78;;;19.50;99.90;;;;;;5032832;28;20033;-57
2023/08/04 09:32:50;;;;;;;14.45;5.28;;;19.80;99.90;;;;;;5040094;28;20119;-58
2023/08/04 09:35:16;;;;;;;8.63;4.63;;;19.90;99.90;;;;;;5037769;28;20041;-58
2023/08/04 09:37:42;;;;;;;8.13;4.40;;;19.80;99.90;;;;;;5037132;28;20132;-58
2023/08/04 09:40:19;;;;;;;10.68;4.70;;;19.70;99.90;;;;;;5035550;28;20401;-58
2023/08/04 09:42:45;;;;;;;8.90;4.78;;;19.90;99.90;;;;;;5040969;28;20124;-57
2023/08/04 09:45:15;;;;;;;11.60;4.80;;;20.00;99.90;;;;;;5039945;28;20033;-57
2023/08/04 09:47:46;;;;;;;10.88;4.47;;;20.10;99.90;;;;;;5039414;28;20570;-56
2023/08/04 09:50:12;;;;;;;9.63;3.97;;;20.10;99.90;;;;;;5039239;28;20080;-57
2023/08/04 09:52:37;;;;;;;8.70;4.25;;;20.20;99.90;;;;;;5037559;28;20061;-57
2023/08/04 09:55:08;;;;;;;13.18;4.63;;;20.10;99.90;;;;;;5039779;28;20037;-58
2023/08/04 09:57:34;;;;;;;11.68;4.18;;;20.20;99.90;;;;;;5039893;28;20029;-57
2023/08/04 10:00:00;;;;;;;7.10;3.63;;;20.20;99.90;;;;;;5034856;28;20094;-57
2023/08/04 10:02:27;;;;;;;10.90;4.20;;;19.70;99.90;;;;;;5038015;28;20514;-58
2023/08/04 10:04:53;;;;;;;12.00;4.18;;;20.00;99.90;;;;;;5039427;28;20037;-57
2023/08/04 10:07:19;;;;;;;7.15;3.83;;;20.10;99.90;;;;;;5038924;28;20376;-56
2023/08/04 10:09:48;;;;;;;7.30;3.50;;;20.10;99.90;;;;;;5042130;28;20033;-58
2023/08/04 10:12:16;;;;;;;7.13;3.75;;;20.30;99.90;;;;;;5040107;28;20362;-57
2023/08/04 10:14:42;;;;;;;13.50;4.53;;;20.10;99.90;;;;;;5038289;28;20032;-58
2023/08/04 10:17:08;;;;;;;7.32;4.03;;;20.30;99.90;;;;;;5040792;28;20045;-58
2023/08/04 10:19:35;;;;;;;10.52;5.47;;;20.70;99.90;;;;;;5034474;28;20051;-57
2023/08/04 10:22:11;;;;;;;7.47;4.13;;;21.00;99.90;;;;;;5032492;28;20045;-57
2023/08/04 10:24:40;;;;;;;8.68;3.85;;;21.00;99.90;;;;;;5046881;28;20056;-57
2023/08/04 10:27:19;;;;;;;6.07;4.22;;;20.90;99.90;;;;;;5044875;28;20032;-57
2023/08/04 10:29:45;;;;;;;10.35;4.43;;;20.70;99.90;;;;;;5042830;28;20357;-57
2023/08/04 10:32:11;;;;;;;8.70;4.90;;;20.60;99.90;;;;;;5042059;28;20037;-56
2023/08/04 10:34:50;;;;;;;11.52;4.88;;;20.60;99.90;;;;;;5042290;28;20543;-57
2023/08/04 10:37:18;;;;;;;7.20;4.18;;;20.70;99.90;;;;;;5042494;28;20052;-57
2023/08/04 10:39:55;;;;;;;9.15;4.80;;;20.90;99.90;;;;;;5039871;28;20064;-56
2023/08/04 10:42:22;;;;;;;10.85;4.45;;;20.80;99.90;;;;;;5039749;28;20036;-58
2023/08/04 10:44:54;;;;;;;9.88;4.53;;;20.70;99.90;;;;;;5038357;28;20037;-58
2023/08/04 10:47:43;;;;;;;7.18;4.60;;;20.70;99.90;;;;;;5040406;28;20055;-56
2023/08/04 10:50:09;;;;;;;10.00;5.07;;;20.70;99.90;;;;;;5039125;28;20444;-56
2023/08/04 10:52:36;;;;;;;10.20;4.63;;;20.80;99.90;;;;;;5044958;28;20052;-57
2023/08/04 10:55:07;;;;;;;9.77;4.20;;;20.90;99.90;;;;;;5036357;28;20036;-56
2023/08/04 10:57:34;;;;;;;8.35;4.65;;;20.90;99.90;;;;;;5043090;28;20509;-58
2023/08/04 11:00:05;;;;;;;9.68;4.68;;;20.90;99.90;;;;;;5040444;28;20497;-57
2023/08/04 11:02:31;;;;;;;7.50;4.40;;;20.90;99.90;;;;;;5038114;28;20033;-58
2023/08/04 11:04:58;;;;;;;14.52;4.68;;;21.00;99.90;;;;;;5040052;28;20030;-57
2023/08/04 11:07:24;;;;;;;9.32;3.97;;;21.10;99.90;;;;;;5036912;28;20058;-56
2023/08/04 11:09:51;;;;;;;5.68;3.80;;;21.00;99.90;;;;;;5042307;28;21919;-57
2023/08/04 11:12:17;;;;;;;9.35;6.05;;;21.00;99.90;;;;;;5033307;28;20037;-58
2023/08/04 11:14:44;;;;;;;6.85;3.95;;;20.90;99.90;;;;;;5039154;28;20128;-58
2023/08/04 11:17:14;;;;;;;7.13;3.60;;;21.00;99.90;;;;;;5040121;28;20037;-57
2023/08/04 11:19:42;;;;;;;6.72;3.40;;;20.90;99.90;;;;;;5044428;28;20037;-59
2023/08/04 11:22:09;;;;;;;6.57;2.70;;;20.80;99.90;;;;;;5043467;28;21237;-57
2023/08/04 11:24:34;;;;;;;3.92;2.40;;;20.80;99.90;;;;;;5041070;28;20070;-57
2023/08/04 11:27:00;;;;;;;7.45;2.75;;;20.90;99.90;;;;;;5040428;28;20496;-57
2023/08/04 11:29:26;;;;;;;5.90;2.60;;;20.90;99.90;;;;;;5039695;28;20037;-57
2023/08/04 11:31:53;;;;;;;5.85;2.72;;;21.10;99.90;;;;;;5041898;28;20082;-58
2023/08/04 11:34:19;;;;;;;6.75;2.50;;;21.20;99.90;;;;;;5040448;28;20078;-57
2023/08/04 11:36:45;;;;;;;4.35;2.47;;;21.40;99.90;;;;;;5040735;28;20040;-57
2023/08/04 11:39:10;;;;;;;4.40;2.65;;;21.40;99.90;;;;;;5037685;28;20034;-57
2023/08/04 11:41:36;;;;;;;5.55;2.70;;;21.50;99.90;;;;;;5041770;28;20047;-54
2023/08/04 11:44:03;;;;;;;4.47;2.38;;;21.50;99.90;;;;;;5039199;28;20041;-59
2023/08/04 11:46:29;;;;;;;3.75;2.63;;;21.60;99.90;;;;;;5042296;28;20511;-58
2023/08/04 11:48:55;;;;;;;7.28;2.45;;;21.80;99.90;;;;;;5036557;28;20144;-57
2023/08/04 11:51:22;;;;;;;6.45;2.10;;;21.60;99.90;;;;;;5039961;28;20543;-55
2023/08/04 11:53:49;;;;;;;4.78;2.38;;;21.60;99.90;;;;;;5040448;28;20029;-57
2023/08/04 11:56:15;;;;;;;4.18;2.05;;;21.60;99.90;;;;;;5039646;28;20044;-58
2023/08/04 11:58:43;;;;;;;4.50;2.10;;;21.40;99.90;;;;;;5041502;28;20033;-59
2023/08/04 12:01:30;;;;;;;4.88;2.10;;;21.40;99.90;;;;;;5042230;28;20025;-57
2023/08/04 12:03:55;;;;;;;6.95;2.08;;;21.70;99.90;;;;;;5030694;28;20595;-57
2023/08/04 12:06:23;;;;;;;4.13;2.00;;;21.70;99.90;;;;;;5034327;28;20113;-58
2023/08/04 12:08:56;;;;;;;3.90;2.15;;;21.70;99.90;;;;;;5037810;28;20519;-59
2023/08/04 12:11:24;;;;;;;4.30;2.30;;;21.30;99.90;;;;;;5041198;28;20040;-58
2023/08/04 12:13:50;;;;;;;5.50;2.20;;;21.40;99.90;;;;;;5040664;28;20178;-58
2023/08/04 12:16:19;;;;;;;4.07;1.98;;;21.50;99.90;;;;;;5043572;28;20548;-58
2023/08/04 12:18:45;;;;;;;5.80;2.75;;;21.50;99.90;;;;;;5041590;28;20109;-58
2023/08/04 12:21:15;;;;;;;3.90;2.25;;;21.80;99.90;;;;;;5039309;28;20039;-58
2023/08/04 12:23:46;;;;;;;7.35;2.60;;;22.00;99.90;;;;;;5042031;28;20591;-58
2023/08/04 12:26:12;;;;;;;6.00;2.45;;;21.90;99.90;;;;;;5035193;28;20148;-57
2023/08/04 12:28:37;;;;;;;5.50;2.25;;;22.00;99.90;;;;;;5035422;28;20111;-57
2023/08/04 12:31:03;;;;;;;4.80;2.05;;;22.10;99.90;;;;;;5038460;28;20592;-57
2023/08/04 12:33:29;;;;;;;4.18;2.13;;;22.10;99.90;;;;;;5036861;28;20033;-59
2023/08/04 12:35:54;;;;;;;4.57;2.38;;;21.90;99.90;;;;;;5038185;28;20041;-58
2023/08/04 12:38:20;;;;;;;4.13;2.08;;;21.80;99.90;;;;;;5040366;28;20367;-58
2023/08/04 12:40:46;;;;;;;3.50;1.70;;;21.70;99.90;;;;;;5039251;28;20038;-59
2023/08/04 12:43:12;;;;;;;3.45;1.75;;;21.80;99.90;;;;;;5028323;28;20041;-58